sensor_id;sensor_type;location;lat;lon;timestamp;temperature;humidity
20946;DHT22;10632;51.276;7.116;2022-07-29T00:01:55;18.00;99.90
20946;DHT22;10632;51.276;7.116;2022-07-29T00:04:28;17.90;99.90
20946;DHT22;10632;51.276;7.116;2022-07-29T00:06:57;17.90;99.90
20946;DHT22;10632;51.276;7.116;2022-07-29T00:09:30;17.90;99.90
20946;DHT22;10632;51.276;7.116;2022-07-29T00:12:15;17.90;99.90
20946;DHT22;10632;51.276;7.116;2022-07-29T00:14:48;17.90;99.90
20946;DHT22;10632;51.276;7.116;2022-07-29T00:17:16;17.90;99.90
20946;DHT22;10632;51.276;7.116;2022-07-29T00:19:49;17.80;99.90
20946;DHT22;10632;51.276;7.116;2022-07-29T00:22:20;17.80;99.90
20946;DHT22;10632;51.276;7.116;2022-07-29T00:24:49;17.80;99.90
20946;DHT22;10632;51.276;7.116;2022-07-29T00:27:26;17.80;99.90
20946;DHT22;10632;51.276;7.116;2022-07-29T00:30:04;17.80;99.90
20946;DHT22;10632;51.276;7.116;2022-07-29T00:32:36;17.80;99.90
20946;DHT22;10632;51.276;7.116;2022-07-29T00:35:08;17.80;99.90
20946;DHT22;10632;51.276;7.116;2022-07-29T00:37:56;17.70;99.90
20946;DHT22;10632;51.276;7.116;2022-07-29T00:40:31;17.70;99.90
20946;DHT22;10632;51.276;7.116;2022-07-29T00:43:13;17.70;99.90
20946;DHT22;10632;51.276;7.116;2022-07-29T00:48:41;17.70;99.90
20946;DHT22;10632;51.276;7.116;2022-07-29T00:51:09;17.70;99.90
20946;DHT22;10632;51.276;7.116;2022-07-29T00:53:43;17.70;99.90
20946;DHT22;10632;51.276;7.116;2022-07-29T00:56:25;17.60;99.90
20946;DHT22;10632;51.276;7.116;2022-07-29T00:58:54;17.60;99.90
20946;DHT22;10632;51.276;7.116;2022-07-29T01:01:35;17.60;99.90
20946;DHT22;10632;51.276;7.116;2022-07-29T01:04:06;17.60;99.90
20946;DHT22;10632;51.276;7.116;2022-07-29T01:06:45;17.50;99.90
20946;DHT22;10632;51.276;7.116;2022-07-29T01:09:18;17.50;99.90
20946;DHT22;10632;51.276;7.116;2022-07-29T01:11:47;17.40;99.90
20946;DHT22;10632;51.276;7.116;2022-07-29T01:14:21;17.50;99.90
20946;DHT22;10632;51.276;7.116;2022-07-29T01:16:54;17.50;99.90
20946;DHT22;10632;51.276;7.116;2022-07-29T01:19:45;17.50;99.90
20946;DHT22;10632;51.276;7.116;2022-07-29T01:22:37;17.50;99.90
20946;DHT22;10632;51.276;7.116;2022-07-29T01:25:24;17.50;99.90
20946;DHT22;10632;51.276;7.116;2022-07-29T01:30:32;17.50;99.90
20946;DHT22;10632;51.276;7.116;2022-07-29T01:33:06;17.40;99.90
20946;DHT22;10632;51.276;7.116;2022-07-29T01:35:36;17.40;99.90
20946;DHT22;10632;51.276;7.116;2022-07-29T01:38:08;17.40;99.90
20946;DHT22;10632;51.276;7.116;2022-07-29T01:40:39;17.40;99.90
20946;DHT22;10632;51.276;7.116;2022-07-29T01:43:11;17.40;99.90
20946;DHT22;10632;51.276;7.116;2022-07-29T01:45:41;17.30;99.90
20946;DHT22;10632;51.276;7.116;2022-07-29T01:48:13;17.30;99.90
20946;DHT22;10632;51.276;7.116;2022-07-29T01:50:47;17.20;99.90
20946;DHT22;10632;51.276;7.116;2022-07-29T01:53:25;17.20;99.90
20946;DHT22;10632;51.276;7.116;2022-07-29T01:55:54;17.20;99.90
20946;DHT22;10632;51.276;7.116;2022-07-29T01:58:23;17.20;99.90
20946;DHT22;10632;51.276;7.116;2022-07-29T02:00:54;17.20;99.90
20946;DHT22;10632;51.276;7.116;2022-07-29T02:03:23;17.10;99.90
20946;DHT22;10632;51.276;7.116;2022-07-29T02:05:51;17.10;99.90
20946;DHT22;10632;51.276;7.116;2022-07-29T02:08:23;17.10;99.90
20946;DHT22;10632;51.276;7.116;2022-07-29T02:10:51;17.10;99.90
20946;DHT22;10632;51.276;7.116;2022-07-29T02:13:20;17.10;99.90
20946;DHT22;10632;51.276;7.116;2022-07-29T02:15:51;17.10;99.90
20946;DHT22;10632;51.276;7.116;2022-07-29T02:18:22;17.00;99.90
20946;DHT22;10632;51.276;7.116;2022-07-29T02:20:53;17.10;99.90
20946;DHT22;10632;51.276;7.116;2022-07-29T02:23:22;17.00;99.90
20946;DHT22;10632;51.276;7.116;2022-07-29T02:25:52;17.10;99.90
20946;DHT22;10632;51.276;7.116;2022-07-29T02:28:20;17.10;99.90
20946;DHT22;10632;51.276;7.116;2022-07-29T02:30:52;17.10;99.90
20946;DHT22;10632;51.276;7.116;2022-07-29T02:33:20;17.00;99.90
20946;DHT22;10632;51.276;7.116;2022-07-29T02:35:48;17.10;99.90
20946;DHT22;10632;51.276;7.116;2022-07-29T02:38:17;17.00;99.90
20946;DHT22;10632;51.276;7.116;2022-07-29T02:41:04;17.00;99.90
20946;DHT22;10632;51.276;7.116;2022-07-29T02:43:33;17.00;99.90
20946;DHT22;10632;51.276;7.116;2022-07-29T02:46:03;17.00;99.90
20946;DHT22;10632;51.276;7.116;2022-07-29T02:48:36;17.00;99.90
20946;DHT22;10632;51.276;7.116;2022-07-29T02:51:06;17.10;99.90
20946;DHT22;10632;51.276;7.116;2022-07-29T02:53:36;17.10;99.90
20946;DHT22;10632;51.276;7.116;2022-07-29T02:56:08;17.10;99.90
20946;DHT22;10632;51.276;7.116;2022-07-29T02:58:39;17.10;99.90
20946;DHT22;10632;51.276;7.116;2022-07-29T03:01:12;17.10;99.90
20946;DHT22;10632;51.276;7.116;2022-07-29T03:03:40;17.10;99.90
20946;DHT22;10632;51.276;7.116;2022-07-29T03:06:09;17.10;99.90
20946;DHT22;10632;51.276;7.116;2022-07-29T03:08:39;17.20;99.90
20946;DHT22;10632;51.276;7.116;2022-07-29T03:11:07;17.20;99.90
20946;DHT22;10632;51.276;7.116;2022-07-29T03:13:36;17.20;99.90
20946;DHT22;10632;51.276;7.116;2022-07-29T03:16:04;17.20;99.90
20946;DHT22;10632;51.276;7.116;2022-07-29T03:18:33;17.30;99.90
20946;DHT22;10632;51.276;7.116;2022-07-29T03:21:00;17.30;99.90
20946;DHT22;10632;51.276;7.116;2022-07-29T03:23:27;17.30;99.90
20946;DHT22;10632;51.276;7.116;2022-07-29T03:25:55;17.30;99.90
20946;DHT22;10632;51.276;7.116;2022-07-29T03:28:22;17.30;99.90
20946;DHT22;10632;51.276;7.116;2022-07-29T03:30:49;17.30;99.90
20946;DHT22;10632;51.276;7.116;2022-07-29T03:33:16;17.30;99.90
20946;DHT22;10632;51.276;7.116;2022-07-29T03:35:45;17.20;99.90
20946;DHT22;10632;51.276;7.116;2022-07-29T03:38:12;17.10;99.90
20946;DHT22;10632;51.276;7.116;2022-07-29T03:40:44;17.00;99.90
20946;DHT22;10632;51.276;7.116;2022-07-29T03:43:13;17.00;99.90
20946;DHT22;10632;51.276;7.116;2022-07-29T03:45:43;16.90;99.90
20946;DHT22;10632;51.276;7.116;2022-07-29T03:48:13;16.90;99.90
20946;DHT22;10632;51.276;7.116;2022-07-29T03:50:41;16.90;99.90
20946;DHT22;10632;51.276;7.116;2022-07-29T03:53:10;16.80;99.90
20946;DHT22;10632;51.276;7.116;2022-07-29T03:55:41;16.80;99.90
20946;DHT22;10632;51.276;7.116;2022-07-29T03:58:08;16.80;99.90
20946;DHT22;10632;51.276;7.116;2022-07-29T04:00:37;16.80;99.90
20946;DHT22;10632;51.276;7.116;2022-07-29T04:03:05;16.80;99.90
20946;DHT22;10632;51.276;7.116;2022-07-29T04:05:32;16.70;99.90
20946;DHT22;10632;51.276;7.116;2022-07-29T04:07:59;16.70;99.90
20946;DHT22;10632;51.276;7.116;2022-07-29T04:10:28;16.70;99.90
20946;DHT22;10632;51.276;7.116;2022-07-29T04:12:54;16.70;99.90
20946;DHT22;10632;51.276;7.116;2022-07-29T04:15:21;16.60;99.90
20946;DHT22;10632;51.276;7.116;2022-07-29T04:17:48;16.60;99.90
20946;DHT22;10632;51.276;7.116;2022-07-29T04:20:15;16.50;99.90
20946;DHT22;10632;51.276;7.116;2022-07-29T04:22:43;16.50;99.90
20946;DHT22;10632;51.276;7.116;2022-07-29T04:25:09;16.40;99.90
20946;DHT22;10632;51.276;7.116;2022-07-29T04:27:38;16.40;99.90
20946;DHT22;10632;51.276;7.116;2022-07-29T04:30:25;16.30;99.90
20946;DHT22;10632;51.276;7.116;2022-07-29T04:32:52;16.20;99.90
20946;DHT22;10632;51.276;7.116;2022-07-29T04:35:19;16.20;99.90
20946;DHT22;10632;51.276;7.116;2022-07-29T04:37:46;16.20;99.90
20946;DHT22;10632;51.276;7.116;2022-07-29T04:40:13;16.20;99.90
20946;DHT22;10632;51.276;7.116;2022-07-29T04:42:42;16.20;99.90
20946;DHT22;10632;51.276;7.116;2022-07-29T04:45:14;16.10;99.90
20946;DHT22;10632;51.276;7.116;2022-07-29T04:47:46;16.10;99.90
20946;DHT22;10632;51.276;7.116;2022-07-29T04:50:18;16.10;99.90
20946;DHT22;10632;51.276;7.116;2022-07-29T04:52:50;16.00;99.90
20946;DHT22;10632;51.276;7.116;2022-07-29T04:55:17;16.00;99.90
20946;DHT22;10632;51.276;7.116;2022-07-29T04:57:50;16.00;99.90
20946;DHT22;10632;51.276;7.116;2022-07-29T05:00:29;16.00;99.90
20946;DHT22;10632;51.276;7.116;2022-07-29T05:02:59;16.00;99.90
20946;DHT22;10632;51.276;7.116;2022-07-29T05:05:30;16.00;99.90
20946;DHT22;10632;51.276;7.116;2022-07-29T05:07:57;16.00;99.90
20946;DHT22;10632;51.276;7.116;2022-07-29T05:10:25;16.00;99.90
20946;DHT22;10632;51.276;7.116;2022-07-29T05:12:53;16.00;99.90
20946;DHT22;10632;51.276;7.116;2022-07-29T05:15:20;16.00;99.90
20946;DHT22;10632;51.276;7.116;2022-07-29T05:17:47;15.90;99.90
20946;DHT22;10632;51.276;7.116;2022-07-29T05:20:14;16.00;99.90
20946;DHT22;10632;51.276;7.116;2022-07-29T05:22:41;15.90;99.90
20946;DHT22;10632;51.276;7.116;2022-07-29T05:25:08;15.90;99.90
20946;DHT22;10632;51.276;7.116;2022-07-29T05:27:35;15.90;99.90
20946;DHT22;10632;51.276;7.116;2022-07-29T05:30:05;15.90;99.90
20946;DHT22;10632;51.276;7.116;2022-07-29T05:32:32;15.90;99.90
20946;DHT22;10632;51.276;7.116;2022-07-29T05:34:59;15.90;99.90
20946;DHT22;10632;51.276;7.116;2022-07-29T05:37:26;15.90;99.90
20946;DHT22;10632;51.276;7.116;2022-07-29T05:39:53;15.90;99.90
20946;DHT22;10632;51.276;7.116;2022-07-29T05:42:20;16.00;99.90
20946;DHT22;10632;51.276;7.116;2022-07-29T05:44:47;16.00;99.90
20946;DHT22;10632;51.276;7.116;2022-07-29T05:47:15;16.00;99.90
20946;DHT22;10632;51.276;7.116;2022-07-29T05:49:42;16.00;99.90
20946;DHT22;10632;51.276;7.116;2022-07-29T05:52:09;16.10;99.90
20946;DHT22;10632;51.276;7.116;2022-07-29T05:54:36;16.10;99.90
20946;DHT22;10632;51.276;7.116;2022-07-29T05:57:03;16.10;99.90
20946;DHT22;10632;51.276;7.116;2022-07-29T05:59:36;16.10;99.90
20946;DHT22;10632;51.276;7.116;2022-07-29T06:02:04;16.20;99.90
20946;DHT22;10632;51.276;7.116;2022-07-29T06:04:32;16.20;99.90
20946;DHT22;10632;51.276;7.116;2022-07-29T06:07:00;16.20;99.90
20946;DHT22;10632;51.276;7.116;2022-07-29T06:09:27;16.20;99.90
20946;DHT22;10632;51.276;7.116;2022-07-29T06:11:54;16.30;99.90
20946;DHT22;10632;51.276;7.116;2022-07-29T06:14:22;16.30;99.90
20946;DHT22;10632;51.276;7.116;2022-07-29T06:16:50;16.30;99.90
20946;DHT22;10632;51.276;7.116;2022-07-29T06:19:17;16.40;99.90
20946;DHT22;10632;51.276;7.116;2022-07-29T06:21:46;16.40;99.90
20946;DHT22;10632;51.276;7.116;2022-07-29T06:24:15;16.50;99.90
20946;DHT22;10632;51.276;7.116;2022-07-29T06:26:42;16.50;99.90
20946;DHT22;10632;51.276;7.116;2022-07-29T06:29:11;16.50;99.90
20946;DHT22;10632;51.276;7.116;2022-07-29T06:31:38;16.50;99.90
20946;DHT22;10632;51.276;7.116;2022-07-29T06:34:05;16.60;99.90
20946;DHT22;10632;51.276;7.116;2022-07-29T06:36:35;16.60;99.90
20946;DHT22;10632;51.276;7.116;2022-07-29T06:39:05;16.70;99.90
20946;DHT22;10632;51.276;7.116;2022-07-29T06:41:33;16.70;99.90
20946;DHT22;10632;51.276;7.116;2022-07-29T06:44:02;16.80;99.90
20946;DHT22;10632;51.276;7.116;2022-07-29T06:46:30;16.80;99.90
20946;DHT22;10632;51.276;7.116;2022-07-29T06:48:57;16.80;99.90
20946;DHT22;10632;51.276;7.116;2022-07-29T06:51:26;16.90;99.90
20946;DHT22;10632;51.276;7.116;2022-07-29T06:53:53;16.90;99.90
20946;DHT22;10632;51.276;7.116;2022-07-29T06:56:21;17.00;99.90
20946;DHT22;10632;51.276;7.116;2022-07-29T06:58:48;17.00;99.90
20946;DHT22;10632;51.276;7.116;2022-07-29T07:01:16;17.10;99.90
20946;DHT22;10632;51.276;7.116;2022-07-29T07:03:43;17.20;99.90
20946;DHT22;10632;51.276;7.116;2022-07-29T07:06:10;17.20;99.90
20946;DHT22;10632;51.276;7.116;2022-07-29T07:08:37;17.30;99.90
20946;DHT22;10632;51.276;7.116;2022-07-29T07:11:07;17.30;99.90
20946;DHT22;10632;51.276;7.116;2022-07-29T07:13:35;17.40;99.90
20946;DHT22;10632;51.276;7.116;2022-07-29T07:16:04;17.40;99.90
20946;DHT22;10632;51.276;7.116;2022-07-29T07:18:31;17.40;99.90
20946;DHT22;10632;51.276;7.116;2022-07-29T07:20:58;17.40;99.90
20946;DHT22;10632;51.276;7.116;2022-07-29T07:23:25;17.50;99.90
20946;DHT22;10632;51.276;7.116;2022-07-29T07:25:52;17.50;99.90
20946;DHT22;10632;51.276;7.116;2022-07-29T07:28:21;17.60;99.90
20946;DHT22;10632;51.276;7.116;2022-07-29T07:30:49;17.60;99.90
20946;DHT22;10632;51.276;7.116;2022-07-29T07:33:16;17.70;99.90
20946;DHT22;10632;51.276;7.116;2022-07-29T07:35:43;17.70;99.90
20946;DHT22;10632;51.276;7.116;2022-07-29T07:38:10;17.70;99.90
20946;DHT22;10632;51.276;7.116;2022-07-29T07:40:37;17.70;99.90
20946;DHT22;10632;51.276;7.116;2022-07-29T07:43:04;17.70;99.90
20946;DHT22;10632;51.276;7.116;2022-07-29T07:45:31;17.70;99.90
20946;DHT22;10632;51.276;7.116;2022-07-29T07:48:00;17.80;99.90
20946;DHT22;10632;51.276;7.116;2022-07-29T07:50:27;17.80;99.90
20946;DHT22;10632;51.276;7.116;2022-07-29T07:52:55;17.80;99.90
20946;DHT22;10632;51.276;7.116;2022-07-29T07:55:24;17.80;99.90
20946;DHT22;10632;51.276;7.116;2022-07-29T07:57:51;17.80;99.90
20946;DHT22;10632;51.276;7.116;2022-07-29T08:00:18;17.80;99.90
20946;DHT22;10632;51.276;7.116;2022-07-29T08:02:45;17.80;99.90
20946;DHT22;10632;51.276;7.116;2022-07-29T08:05:16;17.80;99.90
20946;DHT22;10632;51.276;7.116;2022-07-29T08:07:44;17.80;99.90
20946;DHT22;10632;51.276;7.116;2022-07-29T08:10:12;17.70;99.90
20946;DHT22;10632;51.276;7.116;2022-07-29T08:12:39;17.70;99.90
20946;DHT22;10632;51.276;7.116;2022-07-29T08:15:07;17.60;99.90
20946;DHT22;10632;51.276;7.116;2022-07-29T08:17:34;17.60;99.90
20946;DHT22;10632;51.276;7.116;2022-07-29T08:20:02;17.60;99.90
20946;DHT22;10632;51.276;7.116;2022-07-29T08:22:31;17.50;99.90
20946;DHT22;10632;51.276;7.116;2022-07-29T08:24:57;17.50;99.90
20946;DHT22;10632;51.276;7.116;2022-07-29T08:27:26;17.50;99.90
20946;DHT22;10632;51.276;7.116;2022-07-29T08:29:56;17.40;99.90
20946;DHT22;10632;51.276;7.116;2022-07-29T08:32:23;17.40;99.90
20946;DHT22;10632;51.276;7.116;2022-07-29T08:34:50;17.40;99.90
20946;DHT22;10632;51.276;7.116;2022-07-29T08:37:17;17.30;99.90
20946;DHT22;10632;51.276;7.116;2022-07-29T08:39:45;17.30;99.90
20946;DHT22;10632;51.276;7.116;2022-07-29T08:42:12;17.20;99.90
20946;DHT22;10632;51.276;7.116;2022-07-29T08:44:39;17.20;99.90
20946;DHT22;10632;51.276;7.116;2022-07-29T08:47:06;17.20;99.90
20946;DHT22;10632;51.276;7.116;2022-07-29T08:49:36;17.10;99.90
20946;DHT22;10632;51.276;7.116;2022-07-29T08:52:06;17.20;99.90
20946;DHT22;10632;51.276;7.116;2022-07-29T08:54:33;17.20;99.90
20946;DHT22;10632;51.276;7.116;2022-07-29T08:57:02;17.20;99.90
20946;DHT22;10632;51.276;7.116;2022-07-29T08:59:30;17.20;99.90
20946;DHT22;10632;51.276;7.116;2022-07-29T09:02:00;17.20;99.90
20946;DHT22;10632;51.276;7.116;2022-07-29T09:04:30;17.20;99.90
20946;DHT22;10632;51.276;7.116;2022-07-29T09:07:00;17.20;99.90
20946;DHT22;10632;51.276;7.116;2022-07-29T09:09:30;17.20;99.90
20946;DHT22;10632;51.276;7.116;2022-07-29T09:11:59;17.30;99.90
20946;DHT22;10632;51.276;7.116;2022-07-29T09:14:30;17.30;99.90
20946;DHT22;10632;51.276;7.116;2022-07-29T09:16:57;17.20;99.90
20946;DHT22;10632;51.276;7.116;2022-07-29T09:19:27;17.20;99.90
20946;DHT22;10632;51.276;7.116;2022-07-29T09:21:55;17.20;99.90
20946;DHT22;10632;51.276;7.116;2022-07-29T09:24:42;17.20;99.90
20946;DHT22;10632;51.276;7.116;2022-07-29T09:27:17;17.20;99.90
20946;DHT22;10632;51.276;7.116;2022-07-29T09:29:46;17.10;99.90
20946;DHT22;10632;51.276;7.116;2022-07-29T09:32:14;17.10;99.90
20946;DHT22;10632;51.276;7.116;2022-07-29T09:34:41;17.10;99.90
20946;DHT22;10632;51.276;7.116;2022-07-29T09:37:08;17.10;99.90
20946;DHT22;10632;51.276;7.116;2022-07-29T09:39:35;17.10;99.90
20946;DHT22;10632;51.276;7.116;2022-07-29T09:42:04;17.10;99.90
20946;DHT22;10632;51.276;7.116;2022-07-29T09:44:44;17.10;99.90
20946;DHT22;10632;51.276;7.116;2022-07-29T09:47:12;17.00;99.90
20946;DHT22;10632;51.276;7.116;2022-07-29T09:49:54;17.10;99.90
20946;DHT22;10632;51.276;7.116;2022-07-29T09:52:24;17.10;99.90
20946;DHT22;10632;51.276;7.116;2022-07-29T09:54:51;17.10;99.90
20946;DHT22;10632;51.276;7.116;2022-07-29T09:57:26;17.10;99.90
20946;DHT22;10632;51.276;7.116;2022-07-29T09:59:57;17.10;99.90
20946;DHT22;10632;51.276;7.116;2022-07-29T10:02:30;17.10;99.90
20946;DHT22;10632;51.276;7.116;2022-07-29T10:04:58;17.20;99.90
20946;DHT22;10632;51.276;7.116;2022-07-29T10:07:26;17.20;99.90
20946;DHT22;10632;51.276;7.116;2022-07-29T10:09:55;17.20;99.90
20946;DHT22;10632;51.276;7.116;2022-07-29T10:12:23;17.20;99.90
20946;DHT22;10632;51.276;7.116;2022-07-29T10:14:51;17.30;99.90
20946;DHT22;10632;51.276;7.116;2022-07-29T10:17:18;17.30;99.90
20946;DHT22;10632;51.276;7.116;2022-07-29T10:19:47;17.30;99.90
20946;DHT22;10632;51.276;7.116;2022-07-29T10:22:15;17.30;99.90
20946;DHT22;10632;51.276;7.116;2022-07-29T10:24:42;17.30;99.90
20946;DHT22;10632;51.276;7.116;2022-07-29T10:27:10;17.30;99.90
20946;DHT22;10632;51.276;7.116;2022-07-29T10:29:38;17.30;99.90
20946;DHT22;10632;51.276;7.116;2022-07-29T10:32:26;17.40;99.90
20946;DHT22;10632;51.276;7.116;2022-07-29T10:35:15;17.40;99.90
20946;DHT22;10632;51.276;7.116;2022-07-29T10:40:45;17.50;99.90
20946;DHT22;10632;51.276;7.116;2022-07-29T10:43:34;17.50;99.90
20946;DHT22;10632;51.276;7.116;2022-07-29T10:46:04;17.60;99.90
20946;DHT22;10632;51.276;7.116;2022-07-29T10:48:31;17.60;99.90
20946;DHT22;10632;51.276;7.116;2022-07-29T10:51:01;17.70;99.90
20946;DHT22;10632;51.276;7.116;2022-07-29T10:53:49;17.70;99.90
20946;DHT22;10632;51.276;7.116;2022-07-29T10:56:24;17.80;99.90
20946;DHT22;10632;51.276;7.116;2022-07-29T10:59:23;17.80;99.90
20946;DHT22;10632;51.276;7.116;2022-07-29T11:01:53;17.90;99.90
20946;DHT22;10632;51.276;7.116;2022-07-29T11:07:26;18.10;99.90
20946;DHT22;10632;51.276;7.116;2022-07-29T11:10:20;18.20;99.90
20946;DHT22;10632;51.276;7.116;2022-07-29T11:12:47;18.40;99.90
20946;DHT22;10632;51.276;7.116;2022-07-29T11:15:16;18.50;99.90
20946;DHT22;10632;51.276;7.116;2022-07-29T11:18:07;18.70;99.90
20946;DHT22;10632;51.276;7.116;2022-07-29T11:20:37;18.80;99.90
20946;DHT22;10632;51.276;7.116;2022-07-29T11:23:24;18.90;99.90
20946;DHT22;10632;51.276;7.116;2022-07-29T11:26:14;19.00;99.90
20946;DHT22;10632;51.276;7.116;2022-07-29T11:29:00;19.10;99.90
20946;DHT22;10632;51.276;7.116;2022-07-29T11:31:35;19.10;99.90
20946;DHT22;10632;51.276;7.116;2022-07-29T11:34:23;19.10;99.90
20946;DHT22;10632;51.276;7.116;2022-07-29T11:37:21;19.00;99.90
20946;DHT22;10632;51.276;7.116;2022-07-29T11:40:13;19.10;99.90
20946;DHT22;10632;51.276;7.116;2022-07-29T11:42:48;19.10;99.90
20946;DHT22;10632;51.276;7.116;2022-07-29T11:45:17;19.20;99.90
20946;DHT22;10632;51.276;7.116;2022-07-29T11:47:51;19.20;99.90
20946;DHT22;10632;51.276;7.116;2022-07-29T11:50:32;19.30;99.90
20946;DHT22;10632;51.276;7.116;2022-07-29T11:53:00;19.40;99.90
20946;DHT22;10632;51.276;7.116;2022-07-29T11:55:29;19.60;99.90
20946;DHT22;10632;51.276;7.116;2022-07-29T11:57:59;19.80;99.90
20946;DHT22;10632;51.276;7.116;2022-07-29T12:00:29;20.00;99.90
20946;DHT22;10632;51.276;7.116;2022-07-29T12:02:58;20.10;99.90
20946;DHT22;10632;51.276;7.116;2022-07-29T12:05:37;20.30;99.90
20946;DHT22;10632;51.276;7.116;2022-07-29T12:08:06;20.50;99.90
20946;DHT22;10632;51.276;7.116;2022-07-29T12:10:35;20.60;99.90
20946;DHT22;10632;51.276;7.116;2022-07-29T12:13:02;20.70;99.90
20946;DHT22;10632;51.276;7.116;2022-07-29T12:15:29;20.70;99.90
20946;DHT22;10632;51.276;7.116;2022-07-29T12:17:56;20.80;99.90
20946;DHT22;10632;51.276;7.116;2022-07-29T12:20:25;20.90;99.90
20946;DHT22;10632;51.276;7.116;2022-07-29T12:22:54;21.00;99.90
20946;DHT22;10632;51.276;7.116;2022-07-29T12:25:23;21.10;99.90
20946;DHT22;10632;51.276;7.116;2022-07-29T12:28:02;21.10;99.90
20946;DHT22;10632;51.276;7.116;2022-07-29T12:30:37;21.00;99.90
20946;DHT22;10632;51.276;7.116;2022-07-29T12:33:12;21.10;99.90
20946;DHT22;10632;51.276;7.116;2022-07-29T12:35:40;21.20;99.90
20946;DHT22;10632;51.276;7.116;2022-07-29T12:38:10;21.30;99.90
20946;DHT22;10632;51.276;7.116;2022-07-29T12:40:37;21.40;99.90
20946;DHT22;10632;51.276;7.116;2022-07-29T12:43:07;21.50;99.90
20946;DHT22;10632;51.276;7.116;2022-07-29T12:45:34;21.60;99.90
20946;DHT22;10632;51.276;7.116;2022-07-29T12:48:03;21.70;99.90
20946;DHT22;10632;51.276;7.116;2022-07-29T12:50:30;21.70;99.90
20946;DHT22;10632;51.276;7.116;2022-07-29T12:53:11;21.70;99.90
20946;DHT22;10632;51.276;7.116;2022-07-29T12:55:40;21.80;99.90
20946;DHT22;10632;51.276;7.116;2022-07-29T12:58:09;21.80;99.90
20946;DHT22;10632;51.276;7.116;2022-07-29T13:00:36;21.80;99.90
20946;DHT22;10632;51.276;7.116;2022-07-29T13:03:03;21.90;99.90
20946;DHT22;10632;51.276;7.116;2022-07-29T13:05:43;22.00;99.90
20946;DHT22;10632;51.276;7.116;2022-07-29T13:08:12;22.10;99.90
20946;DHT22;10632;51.276;7.116;2022-07-29T13:10:39;22.10;99.90
20946;DHT22;10632;51.276;7.116;2022-07-29T13:13:07;22.20;99.90
20946;DHT22;10632;51.276;7.116;2022-07-29T13:15:37;22.30;99.90
20946;DHT22;10632;51.276;7.116;2022-07-29T13:18:05;22.30;99.90
20946;DHT22;10632;51.276;7.116;2022-07-29T13:20:52;22.40;99.90
20946;DHT22;10632;51.276;7.116;2022-07-29T13:23:19;22.50;99.90
20946;DHT22;10632;51.276;7.116;2022-07-29T13:25:46;22.60;99.90
20946;DHT22;10632;51.276;7.116;2022-07-29T13:28:13;22.60;99.90
20946;DHT22;10632;51.276;7.116;2022-07-29T13:30:41;22.60;99.90
20946;DHT22;10632;51.276;7.116;2022-07-29T13:33:08;22.60;99.90
20946;DHT22;10632;51.276;7.116;2022-07-29T13:35:35;22.60;99.90
20946;DHT22;10632;51.276;7.116;2022-07-29T13:38:05;22.40;99.90
20946;DHT22;10632;51.276;7.116;2022-07-29T13:40:32;22.40;99.90
20946;DHT22;10632;51.276;7.116;2022-07-29T13:43:00;22.40;99.90
20946;DHT22;10632;51.276;7.116;2022-07-29T13:45:27;22.40;99.90
20946;DHT22;10632;51.276;7.116;2022-07-29T13:47:56;22.40;99.90
20946;DHT22;10632;51.276;7.116;2022-07-29T13:50:26;22.50;99.90
20946;DHT22;10632;51.276;7.116;2022-07-29T13:52:53;22.50;99.90
20946;DHT22;10632;51.276;7.116;2022-07-29T13:55:20;22.40;99.90
20946;DHT22;10632;51.276;7.116;2022-07-29T13:57:47;22.40;99.90
20946;DHT22;10632;51.276;7.116;2022-07-29T14:00:14;22.40;99.90
20946;DHT22;10632;51.276;7.116;2022-07-29T14:02:42;22.50;99.90
20946;DHT22;10632;51.276;7.116;2022-07-29T14:05:10;22.60;99.90
20946;DHT22;10632;51.276;7.116;2022-07-29T14:07:38;22.60;99.90
20946;DHT22;10632;51.276;7.116;2022-07-29T14:10:05;22.70;99.90
20946;DHT22;10632;51.276;7.116;2022-07-29T14:12:33;22.70;99.90
20946;DHT22;10632;51.276;7.116;2022-07-29T14:14:59;22.70;99.90
20946;DHT22;10632;51.276;7.116;2022-07-29T14:17:26;22.70;99.90
20946;DHT22;10632;51.276;7.116;2022-07-29T14:19:54;22.70;99.90
20946;DHT22;10632;51.276;7.116;2022-07-29T14:22:22;22.70;99.90
20946;DHT22;10632;51.276;7.116;2022-07-29T14:24:50;22.70;99.90
20946;DHT22;10632;51.276;7.116;2022-07-29T14:27:20;22.70;99.90
20946;DHT22;10632;51.276;7.116;2022-07-29T14:29:47;22.70;99.90
20946;DHT22;10632;51.276;7.116;2022-07-29T14:32:13;22.70;99.90
20946;DHT22;10632;51.276;7.116;2022-07-29T14:34:41;22.70;99.90
20946;DHT22;10632;51.276;7.116;2022-07-29T14:37:08;22.70;99.90
20946;DHT22;10632;51.276;7.116;2022-07-29T14:39:36;22.70;99.90
20946;DHT22;10632;51.276;7.116;2022-07-29T14:42:06;22.80;99.90
20946;DHT22;10632;51.276;7.116;2022-07-29T14:44:33;22.80;99.90
20946;DHT22;10632;51.276;7.116;2022-07-29T14:47:00;22.80;99.90
20946;DHT22;10632;51.276;7.116;2022-07-29T14:49:27;22.80;99.90
20946;DHT22;10632;51.276;7.116;2022-07-29T14:51:54;22.90;99.90
20946;DHT22;10632;51.276;7.116;2022-07-29T14:54:21;22.80;99.90
20946;DHT22;10632;51.276;7.116;2022-07-29T14:56:52;22.80;99.90
20946;DHT22;10632;51.276;7.116;2022-07-29T14:59:22;22.80;99.90
20946;DHT22;10632;51.276;7.116;2022-07-29T15:01:49;22.80;99.90
20946;DHT22;10632;51.276;7.116;2022-07-29T15:04:18;22.80;99.90
20946;DHT22;10632;51.276;7.116;2022-07-29T15:06:45;22.90;99.90
20946;DHT22;10632;51.276;7.116;2022-07-29T15:09:12;22.90;99.90
20946;DHT22;10632;51.276;7.116;2022-07-29T15:11:39;23.00;99.90
20946;DHT22;10632;51.276;7.116;2022-07-29T15:14:08;23.00;99.90
20946;DHT22;10632;51.276;7.116;2022-07-29T15:16:35;22.90;99.90
20946;DHT22;10632;51.276;7.116;2022-07-29T15:19:02;23.00;99.90
20946;DHT22;10632;51.276;7.116;2022-07-29T15:21:29;23.00;99.90
20946;DHT22;10632;51.276;7.116;2022-07-29T15:23:56;23.10;99.90
20946;DHT22;10632;51.276;7.116;2022-07-29T15:26:23;23.10;99.90
20946;DHT22;10632;51.276;7.116;2022-07-29T15:28:50;23.10;99.90
20946;DHT22;10632;51.276;7.116;2022-07-29T15:31:18;23.10;99.90
20946;DHT22;10632;51.276;7.116;2022-07-29T15:33:45;23.20;99.90
20946;DHT22;10632;51.276;7.116;2022-07-29T15:36:12;23.20;99.90
20946;DHT22;10632;51.276;7.116;2022-07-29T15:38:39;23.20;99.90
20946;DHT22;10632;51.276;7.116;2022-07-29T15:41:07;23.20;99.90
20946;DHT22;10632;51.276;7.116;2022-07-29T15:43:34;23.10;99.90
20946;DHT22;10632;51.276;7.116;2022-07-29T15:46:01;23.10;99.90
20946;DHT22;10632;51.276;7.116;2022-07-29T15:48:52;23.20;99.90
20946;DHT22;10632;51.276;7.116;2022-07-29T15:51:19;23.10;99.90
20946;DHT22;10632;51.276;7.116;2022-07-29T15:53:46;23.00;99.90
20946;DHT22;10632;51.276;7.116;2022-07-29T15:56:13;22.90;99.90
20946;DHT22;10632;51.276;7.116;2022-07-29T15:58:39;22.90;99.90
20946;DHT22;10632;51.276;7.116;2022-07-29T16:01:06;22.90;99.90